Decoded Metar for KAVP (AVOCA/WILKES B. in PA, USA) (IATA:AVP) | Meteo·Mobile Aviation Weather
aviador You're here:

KAVP Decoded Metar

AVOCA/WILKES B. in PA, USA
Report Time2018-11-18 07:54:00
UTC Time2018-11-18 08:30:36
Flight Rules vfr VFR
Wind340° at 04 kt
W.Decomp.*RWY 04: 2.6 kt HW 3 kt LCW
RWY 28: 1.3 kt HW 3.8 kt RCW
W.Rank340° ranks 10
Current wind is below 340° avg. (8.7)
Visibility9999 m
Phenomena:N/A
Clouds:Overcast 037 Hf
Expected CloudBase > 2,000 ft AGL from Temp-Dew spread
Ceiling3,700 ft
Temp02°C (ISA -11)
Dew Point-3°C (70% RH)
AAT-1.8°C
QNH1026 hPa
Density Alt-761 ft
Elevation955 ft
Report Wrong Elevation
Raw Report
KAVP 180754Z 34004KT 10SM OVC037 02/M03 A3030 RMK AO2 SLP266
T00171033=

Extra information for KAVP:More info

Metar Taf Metar & Taf Last 4 Metars F.Rules Stats Wind Profile Meteogram Temp Stats Airport Information Weather charts Add Link Nearby VenuesMetar ALERT Operation Metar Decoded Social comments

AIRNAV info for KAVP